createdAt,value
2022-10-01T00:00:31.046Z,7.03
2022-10-01T00:02:58.238Z,10.30
2022-10-01T00:05:32.095Z,4.75
2022-10-01T00:07:59.344Z,6.82
2022-10-01T00:10:33.004Z,7.20
2022-10-01T00:13:00.329Z,9.05
2022-10-01T00:15:34.106Z,8.27
2022-10-01T00:18:02.191Z,12.05
2022-10-01T00:20:29.464Z,9.32
2022-10-01T00:23:02.982Z,12.75
2022-10-01T00:25:30.549Z,11.82
2022-10-01T00:30:48.555Z,7.57
2022-10-01T00:33:22.111Z,13.82
2022-10-01T00:35:49.755Z,8.85
2022-10-01T00:40:50.254Z,11.55
2022-10-01T00:43:31.057Z,9.00
2022-10-01T00:46:06.201Z,12.45
2022-10-01T00:48:36.301Z,13.52
2022-10-01T00:51:03.534Z,15.30
2022-10-01T00:53:37.089Z,14.02
2022-10-01T00:56:07.071Z,17.50
2022-10-01T00:58:41.116Z,16.13
2022-10-01T01:01:08.335Z,13.63
2022-10-01T01:03:42.157Z,14.38
2022-10-01T01:06:09.849Z,10.93
2022-10-01T01:08:37.018Z,15.98
2022-10-01T01:11:24.107Z,14.88
2022-10-01T01:14:09.805Z,14.65
2022-10-01T01:16:46.088Z,15.52
2022-10-01T01:19:31.827Z,13.82
2022-10-01T01:22:08.083Z,16.17
2022-10-01T01:24:47.631Z,18.33
2022-10-01T01:27:23.184Z,12.02
2022-10-01T01:30:00.832Z,19.52
2022-10-01T01:32:38.084Z,13.15
2022-10-01T01:35:06.753Z,16.33
2022-10-01T01:37:43.088Z,11.55
2022-10-01T01:40:11.691Z,14.77
2022-10-01T01:42:48.114Z,18.13
2022-10-01T01:45:17.956Z,13.65
2022-10-01T01:47:53.204Z,15.30
2022-10-01T01:50:20.529Z,12.48
2022-10-01T01:52:54.267Z,8.98
2022-10-01T01:55:24.305Z,13.27
2022-10-01T01:57:58.052Z,18.77
2022-10-01T02:00:25.383Z,12.45
2022-10-01T02:02:54.512Z,13.02
2022-10-01T02:05:31.072Z,14.13
2022-10-01T02:08:28.042Z,19.17
2022-10-01T02:11:02.123Z,11.95
2022-10-01T02:13:32.333Z,15.13
2022-10-01T02:16:25.092Z,17.70
2022-10-01T02:19:05.688Z,16.95
2022-10-01T02:21:42.090Z,24.45
2022-10-01T02:24:09.377Z,26.15
2022-10-01T02:26:44.107Z,24.48
2022-10-01T02:29:19.979Z,30.48
2022-10-01T02:31:55.229Z,33.80
2022-10-01T02:34:23.521Z,24.23
2022-10-01T02:36:58.224Z,28.92
2022-10-01T02:39:26.515Z,28.80
2022-10-01T02:42:01.113Z,36.35
2022-10-01T02:44:31.547Z,41.10
2022-10-01T02:47:11.198Z,30.02
2022-10-01T02:49:40.108Z,35.45
2022-10-01T02:52:26.183Z,34.85
2022-10-01T02:55:11.066Z,42.97
2022-10-01T02:57:45.167Z,34.83
2022-10-01T03:00:13.879Z,34.17
2022-10-01T03:02:47.250Z,40.83
2022-10-01T03:05:15.305Z,39.53
2022-10-01T03:07:43.616Z,43.28
2022-10-01T03:10:18.128Z,39.83
2022-10-01T03:12:46.507Z,41.13
2022-10-01T03:15:21.182Z,48.60
2022-10-01T03:17:52.149Z,46.08
2022-10-01T03:20:19.461Z,46.67
2022-10-01T03:22:54.168Z,49.65
2022-10-01T03:25:21.627Z,48.47
2022-10-01T03:28:02.232Z,59.13
2022-10-01T03:30:36.141Z,52.15
2022-10-01T03:33:10.428Z,46.72
2022-10-01T03:35:37.614Z,54.90
2022-10-01T03:38:04.884Z,45.58
2022-10-01T03:40:41.184Z,56.20
2022-10-01T03:43:08.547Z,45.72
2022-10-01T03:45:35.732Z,45.22
2022-10-01T03:48:09.182Z,53.72
2022-10-01T03:50:36.715Z,53.30
2022-10-01T03:53:10.305Z,53.40
2022-10-01T03:55:37.483Z,56.80
2022-10-01T03:58:04.920Z,43.05
2022-10-01T04:00:38.202Z,39.65
2022-10-01T04:03:06.732Z,46.78
2022-10-01T04:05:40.249Z,51.25
2022-10-01T04:08:07.489Z,50.60
2022-10-01T04:10:34.708Z,51.15
2022-10-01T04:13:08.134Z,47.05
2022-10-01T04:15:35.528Z,46.97
2022-10-01T04:18:13.184Z,45.45
2022-10-01T04:20:55.124Z,52.25
2022-10-01T04:23:35.317Z,47.35
2022-10-01T04:26:10.090Z,44.55
2022-10-01T04:28:46.497Z,59.42
2022-10-01T04:31:33.345Z,51.88
2022-10-01T04:34:01.015Z,54.88
2022-10-01T04:36:35.138Z,45.42
2022-10-01T04:39:03.063Z,54.53
2022-10-01T04:41:31.519Z,58.58
2022-10-01T04:44:06.159Z,57.90
2022-10-01T04:46:33.372Z,55.03
2022-10-01T04:49:08.282Z,42.03
2022-10-01T04:51:35.847Z,42.75
2022-10-01T04:54:03.199Z,48.28
2022-10-01T04:56:37.180Z,44.75
2022-10-01T04:59:04.425Z,45.53
2022-10-01T05:01:39.474Z,42.45
2022-10-01T05:04:06.804Z,48.03
2022-10-01T05:06:33.917Z,39.22
2022-10-01T05:09:08.293Z,44.00
2022-10-01T05:11:35.775Z,41.88
2022-10-01T05:14:03.235Z,44.65
2022-10-01T05:16:37.372Z,40.70
2022-10-01T05:19:04.885Z,45.20
2022-10-01T05:21:38.279Z,46.22
2022-10-01T05:24:05.655Z,43.28
2022-10-01T05:26:32.996Z,38.10
2022-10-01T05:29:07.321Z,41.20
2022-10-01T05:31:34.896Z,48.47
2022-10-01T05:34:02.343Z,42.10
2022-10-01T05:36:36.192Z,41.13
2022-10-01T05:39:03.762Z,33.45
2022-10-01T05:44:06.092Z,31.85
2022-10-01T05:46:40.332Z,32.38
2022-10-01T05:49:08.327Z,32.42
2022-10-01T05:51:36.548Z,34.75
2022-10-01T05:54:11.423Z,31.23
2022-10-01T05:56:38.681Z,33.38
2022-10-01T05:59:06.988Z,24.15
2022-10-01T06:01:41.258Z,30.80
2022-10-01T06:04:10.676Z,29.25
2022-10-01T06:06:44.360Z,30.17
2022-10-01T06:09:11.976Z,27.30
2022-10-01T06:14:13.326Z,22.77
2022-10-01T06:16:40.542Z,23.70
2022-10-01T06:19:07.784Z,23.35
2022-10-01T06:21:42.170Z,25.60
2022-10-01T06:24:09.429Z,27.63
2022-10-01T06:26:44.203Z,23.52
2022-10-01T06:29:18.051Z,27.08
2022-10-01T06:31:52.318Z,22.38
2022-10-01T06:34:19.532Z,20.20
2022-10-01T06:36:46.815Z,28.30
2022-10-01T06:39:21.445Z,22.65
2022-10-01T06:41:49.061Z,21.38
2022-10-01T06:46:50.191Z,21.92
2022-10-01T06:49:20.536Z,20.00
2022-10-01T06:52:13.448Z,23.05
2022-10-01T06:54:40.649Z,23.75
2022-10-01T06:57:07.811Z,19.55
2022-10-01T06:59:44.215Z,21.33
2022-10-01T07:02:20.879Z,19.98
2022-10-01T07:04:55.353Z,20.25
2022-10-01T07:07:23.716Z,22.48
2022-10-01T07:09:53.184Z,20.83
2022-10-01T07:12:27.233Z,20.13
2022-10-01T07:14:54.688Z,21.42
2022-10-01T07:17:22.446Z,19.00
2022-10-01T07:19:56.284Z,22.20
2022-10-01T07:22:24.729Z,27.63
2022-10-01T07:24:59.236Z,22.30
2022-10-01T07:27:33.294Z,18.27
2022-10-01T07:30:14.291Z,20.30
2022-10-01T07:32:44.906Z,18.55
2022-10-01T07:35:12.067Z,22.08
2022-10-01T07:37:46.284Z,29.75
2022-10-01T07:40:16.265Z,17.65
2022-10-01T07:42:50.215Z,17.23
2022-10-01T07:45:17.487Z,20.20
2022-10-01T07:47:44.613Z,16.50
2022-10-01T07:50:18.366Z,14.77
2022-10-01T07:52:45.672Z,18.00
2022-10-01T07:55:14.201Z,12.77
2022-10-01T07:57:48.239Z,17.70
2022-10-01T08:00:15.628Z,16.83
2022-10-01T08:02:47.177Z,15.13
2022-10-01T08:05:24.212Z,13.65
2022-10-01T08:07:58.113Z,11.35
2022-10-01T08:10:32.276Z,13.50
2022-10-01T08:13:07.288Z,12.55
2022-10-01T08:15:34.572Z,15.00
2022-10-01T08:18:03.180Z,16.15
2022-10-01T08:20:37.225Z,12.07
2022-10-01T08:23:04.766Z,10.90
2022-10-01T08:28:07.406Z,14.18
2022-10-01T08:30:34.607Z,11.77
2022-10-01T08:33:08.551Z,14.18
2022-10-01T08:35:35.842Z,12.30
2022-10-01T08:38:03.913Z,11.20
2022-10-01T08:40:44.421Z,10.15
2022-10-01T08:43:14.692Z,15.70
2022-10-01T08:45:52.249Z,11.02
2022-10-01T08:48:28.138Z,10.95
2022-10-01T08:51:04.295Z,8.07
2022-10-01T08:53:44.165Z,10.98
2022-10-01T08:56:38.429Z,11.77
2022-10-01T08:59:10.619Z,11.43
2022-10-01T09:01:44.394Z,11.32
2022-10-01T09:04:11.859Z,9.60
2022-10-01T09:06:46.294Z,8.75
2022-10-01T09:09:32.288Z,8.00
2022-10-01T09:12:12.304Z,12.82
2022-10-01T09:14:42.233Z,9.82
2022-10-01T09:17:22.271Z,11.30
2022-10-01T09:20:05.224Z,7.75
2022-10-01T09:22:42.240Z,11.20
2022-10-01T09:25:28.224Z,7.35
2022-10-01T09:28:25.347Z,11.43
2022-10-01T09:31:18.049Z,6.97
2022-10-01T09:33:56.291Z,9.80
2022-10-01T09:36:41.874Z,9.98
2022-10-01T09:39:33.302Z,8.32
2022-10-01T09:42:00.652Z,9.63
2022-10-01T09:44:35.352Z,8.35
2022-10-01T09:47:02.496Z,9.52
2022-10-01T09:49:41.348Z,10.07
2022-10-01T09:52:13.777Z,10.23
2022-10-01T09:54:50.288Z,9.82
2022-10-01T09:57:25.570Z,7.93
2022-10-01T10:00:00.287Z,5.07
2022-10-01T10:02:33.994Z,9.20
2022-10-01T10:05:08.395Z,7.38
2022-10-01T10:07:35.713Z,8.30
2022-10-01T10:10:26.361Z,9.63
2022-10-01T10:13:17.282Z,7.00
2022-10-01T10:16:05.322Z,7.65
2022-10-01T10:18:35.605Z,7.32
2022-10-01T10:21:10.404Z,10.05
2022-10-01T10:23:46.912Z,4.50
2022-10-01T10:26:27.383Z,6.25
2022-10-01T10:29:02.207Z,9.70
2022-10-01T10:31:38.494Z,4.55
2022-10-01T10:34:05.600Z,7.20
2022-10-01T10:36:35.045Z,6.13
2022-10-01T10:39:10.289Z,8.45
2022-10-01T10:41:38.000Z,11.85
2022-10-01T10:44:14.287Z,7.15
2022-10-01T10:46:45.907Z,6.07
2022-10-01T10:49:40.272Z,5.45
2022-10-01T10:52:19.732Z,11.95
2022-10-01T10:54:55.385Z,6.20
2022-10-01T10:57:30.034Z,4.78
2022-10-01T11:00:08.305Z,5.90
2022-10-01T11:05:04.350Z,9.43
2022-10-01T11:07:38.314Z,10.32
2022-10-01T11:10:30.343Z,6.97
2022-10-01T11:13:06.841Z,6.70
2022-10-01T11:16:03.441Z,5.00
2022-10-01T11:18:33.762Z,4.93
2022-10-01T11:21:30.263Z,4.70
2022-10-01T11:24:13.371Z,7.05
2022-10-01T11:27:05.232Z,6.15
2022-10-01T11:30:08.263Z,6.57
2022-10-01T11:32:52.241Z,7.18
2022-10-01T11:35:45.605Z,3.50
2022-10-01T11:38:38.368Z,6.18
2022-10-01T11:41:22.643Z,8.60
2022-10-01T11:44:01.322Z,6.25
2022-10-01T11:46:29.606Z,7.88
2022-10-01T11:49:09.359Z,6.32
2022-10-01T11:51:42.443Z,5.45
2022-10-01T11:54:18.377Z,7.35
2022-10-01T11:57:08.262Z,6.20
2022-10-01T11:59:47.234Z,4.47
2022-10-01T12:02:31.669Z,4.35
2022-10-01T12:05:05.295Z,8.55
2022-10-01T12:07:32.624Z,6.10
2022-10-01T12:10:25.260Z,8.30
2022-10-01T12:12:57.462Z,11.85
2022-10-01T12:15:36.251Z,4.18
2022-10-01T12:18:09.070Z,10.23
2022-10-01T12:20:45.263Z,5.88
2022-10-01T12:23:18.195Z,7.10
2022-10-01T12:26:11.219Z,5.68
2022-10-01T12:29:04.337Z,4.88
2022-10-01T12:31:48.486Z,6.45
2022-10-01T12:34:22.570Z,6.25
2022-10-01T12:36:56.378Z,3.78
2022-10-01T12:39:26.572Z,7.05
2022-10-01T12:42:06.493Z,9.73
2022-10-01T12:44:54.218Z,5.93
2022-10-01T12:47:35.223Z,4.70
2022-10-01T12:50:20.948Z,7.32
2022-10-01T12:52:54.215Z,6.30
2022-10-01T12:55:21.712Z,3.92
2022-10-01T12:57:55.258Z,7.60
2022-10-01T13:00:25.065Z,4.85
2022-10-01T13:02:52.606Z,6.88
2022-10-01T13:08:01.643Z,3.72
2022-10-01T13:10:38.427Z,5.07
2022-10-01T13:13:08.328Z,7.68
2022-10-01T13:15:44.268Z,7.75
2022-10-01T13:18:11.568Z,5.40
2022-10-01T13:20:50.232Z,6.15
2022-10-01T13:23:24.207Z,4.72
2022-10-01T13:26:13.241Z,4.45
2022-10-01T13:28:50.144Z,4.60
2022-10-01T13:31:27.318Z,7.68
2022-10-01T13:33:55.943Z,5.57
2022-10-01T13:36:37.765Z,5.22
2022-10-01T13:39:05.418Z,3.60
2022-10-01T13:41:42.358Z,4.25
2022-10-01T13:44:11.297Z,5.65
2022-10-01T13:46:56.253Z,8.70
2022-10-01T13:49:25.791Z,4.35
2022-10-01T13:52:00.244Z,3.97
2022-10-01T13:54:30.245Z,7.72
2022-10-01T13:57:14.401Z,1.52
2022-10-01T13:59:43.378Z,3.38
2022-10-01T14:02:43.302Z,3.33
2022-10-01T14:05:23.333Z,4.43
2022-10-01T14:08:01.365Z,6.22
2022-10-01T14:10:33.828Z,2.15
2022-10-01T14:13:29.288Z,6.82
2022-10-01T14:16:00.266Z,4.97
2022-10-01T14:18:37.421Z,4.53
2022-10-01T14:21:04.697Z,4.50
2022-10-01T14:23:47.057Z,3.42
2022-10-01T14:26:17.611Z,5.88
2022-10-01T14:29:23.422Z,5.25
2022-10-01T14:32:00.108Z,4.18
2022-10-01T14:34:52.584Z,4.93
2022-10-01T14:37:20.569Z,4.25
2022-10-01T14:39:47.858Z,5.10
2022-10-01T14:42:23.554Z,3.50
2022-10-01T14:44:50.805Z,5.13
2022-10-01T14:47:20.331Z,3.78
2022-10-01T14:49:54.348Z,40.55
2022-10-01T14:52:21.603Z,6.13
2022-10-01T14:54:55.641Z,4.90
2022-10-01T14:57:26.062Z,3.80
2022-10-01T14:59:53.530Z,6.18
2022-10-01T15:02:28.463Z,11.90
2022-10-01T15:05:03.313Z,12.68
2022-10-01T15:07:36.861Z,11.20
2022-10-01T15:10:14.259Z,7.38
2022-10-01T15:12:41.884Z,5.65
2022-10-01T15:17:42.874Z,4.63
2022-10-01T15:20:12.177Z,4.07
2022-10-01T15:22:46.487Z,4.50
2022-10-01T15:25:21.775Z,9.13
2022-10-01T15:27:56.680Z,5.55
2022-10-01T15:30:30.444Z,4.82
2022-10-01T15:33:04.487Z,5.88
2022-10-01T15:35:32.499Z,4.18
2022-10-01T15:38:00.713Z,4.65
2022-10-01T15:40:35.411Z,6.18
2022-10-01T15:43:08.670Z,6.78
2022-10-01T15:45:43.460Z,6.05
2022-10-01T15:48:30.156Z,6.25
2022-10-01T15:51:09.369Z,5.75
2022-10-01T15:53:36.549Z,7.70
2022-10-01T15:56:17.378Z,8.52
2022-10-01T15:58:46.804Z,4.47
2022-10-01T16:01:23.445Z,3.88
2022-10-01T16:03:50.727Z,6.43
2022-10-01T16:06:26.415Z,5.60
2022-10-01T16:09:00.212Z,4.13
2022-10-01T16:11:38.378Z,5.38
2022-10-01T16:14:29.499Z,4.93
2022-10-01T16:17:23.471Z,5.50
2022-10-01T16:19:56.767Z,7.75
2022-10-01T16:22:30.410Z,5.10
2022-10-01T16:24:58.718Z,5.22
2022-10-01T16:27:37.560Z,4.90
2022-10-01T16:30:14.375Z,8.05
2022-10-01T16:32:55.422Z,8.23
2022-10-01T16:35:24.037Z,5.03
2022-10-01T16:37:54.737Z,4.05
2022-10-01T16:40:30.415Z,3.55
2022-10-01T16:42:58.873Z,3.38
2022-10-01T16:45:34.573Z,4.72
2022-10-01T16:48:01.830Z,5.35
2022-10-01T16:50:36.452Z,5.25
2022-10-01T16:53:04.344Z,5.93
2022-10-01T16:55:44.366Z,4.32
2022-10-01T16:58:19.361Z,6.25
2022-10-01T17:00:46.747Z,3.83
2022-10-01T17:03:18.583Z,7.53
2022-10-01T17:05:52.516Z,4.63
2022-10-01T17:08:19.952Z,6.03
2022-10-01T17:11:10.657Z,5.47
2022-10-01T17:13:39.707Z,6.03
2022-10-01T17:16:13.421Z,5.13
2022-10-01T17:18:40.713Z,7.40
2022-10-01T17:21:09.833Z,9.18
2022-10-01T17:23:43.708Z,4.90
2022-10-01T17:26:10.898Z,7.53
2022-10-01T17:28:44.455Z,8.10
2022-10-01T17:31:18.499Z,4.85
2022-10-01T17:33:52.606Z,5.88
2022-10-01T17:36:19.871Z,8.20
2022-10-01T17:38:47.084Z,7.47
2022-10-01T17:41:21.483Z,6.68
2022-10-01T17:43:48.681Z,4.43
2022-10-01T17:46:22.728Z,5.43
2022-10-01T17:48:50.856Z,7.57
2022-10-01T17:51:18.176Z,5.15
2022-10-01T17:53:52.442Z,10.52
2022-10-01T17:56:19.873Z,8.90
2022-10-01T17:58:47.573Z,9.23
2022-10-01T18:03:48.896Z,8.90
2022-10-01T18:06:22.486Z,9.52
2022-10-01T18:08:57.037Z,6.28
2022-10-01T18:11:32.445Z,9.00
2022-10-01T18:13:59.789Z,6.38
2022-10-01T18:16:36.544Z,6.05
2022-10-01T18:21:58.517Z,8.20
2022-10-01T18:24:32.356Z,4.65
2022-10-01T18:26:59.519Z,6.10
2022-10-01T18:29:39.340Z,4.05
2022-10-01T18:32:21.521Z,5.57
2022-10-01T18:35:04.317Z,7.03
2022-10-01T18:37:37.708Z,4.60
2022-10-01T18:40:24.334Z,6.10
2022-10-01T18:43:05.133Z,8.23
2022-10-01T18:45:57.390Z,4.93
2022-10-01T18:48:45.063Z,5.07
2022-10-01T18:51:18.373Z,6.32
2022-10-01T18:54:04.040Z,5.72
2022-10-01T18:56:42.335Z,5.63
2022-10-01T19:02:02.543Z,4.05
2022-10-01T19:04:29.910Z,5.43
2022-10-01T19:07:08.385Z,5.10
2022-10-01T19:09:41.777Z,4.72
2022-10-01T19:12:28.473Z,5.43
2022-10-01T19:15:04.391Z,6.18
2022-10-01T19:17:40.733Z,5.70
2022-10-01T19:20:17.856Z,7.20
2022-10-01T19:23:10.376Z,5.72
2022-10-01T19:25:41.246Z,5.50
2022-10-01T19:28:21.490Z,3.47
2022-10-01T19:31:10.619Z,4.85
2022-10-01T19:33:54.355Z,4.57
2022-10-01T19:36:41.726Z,5.57
2022-10-01T19:39:16.659Z,4.90
2022-10-01T19:41:54.432Z,7.15
2022-10-01T19:44:25.048Z,7.10
2022-10-01T19:46:59.493Z,6.18
2022-10-01T19:49:28.306Z,7.00
2022-10-01T19:52:06.428Z,4.80
2022-10-01T19:54:35.436Z,4.45
2022-10-01T19:57:27.431Z,6.18
2022-10-01T20:00:11.498Z,9.63
2022-10-01T20:02:57.554Z,5.65
2022-10-01T20:05:35.893Z,6.40
2022-10-01T20:08:09.538Z,6.47
2022-10-01T20:10:49.366Z,5.93
2022-10-01T20:13:16.991Z,9.02
2022-10-01T20:18:28.001Z,5.68
2022-10-01T20:21:22.374Z,7.57
2022-10-01T20:23:58.614Z,8.15
2022-10-01T20:26:48.380Z,10.07
2022-10-01T20:29:54.580Z,9.57
2022-10-01T20:32:36.374Z,9.00
2022-10-01T20:35:19.075Z,6.72
2022-10-01T20:37:58.378Z,6.97
2022-10-01T20:40:49.502Z,7.95
2022-10-01T20:43:29.373Z,4.97
2022-10-01T20:45:57.214Z,9.02
2022-10-01T20:48:43.369Z,11.23
2022-10-01T20:51:13.119Z,7.57
2022-10-01T20:53:56.377Z,5.90
2022-10-01T20:56:45.034Z,8.40
2022-10-01T20:59:26.383Z,9.02
2022-10-01T21:02:02.701Z,8.40
2022-10-01T21:04:39.369Z,9.68
2022-10-01T21:07:18.208Z,10.15
2022-10-01T21:09:54.372Z,8.95
2022-10-01T21:12:33.443Z,8.10
2022-10-01T21:15:08.408Z,12.27
2022-10-01T21:17:56.755Z,10.50
2022-10-01T21:20:51.618Z,10.60
2022-10-01T21:23:18.971Z,6.50
2022-10-01T21:26:11.391Z,8.20
2022-10-01T21:28:55.914Z,11.35
2022-10-01T21:31:47.415Z,8.38
2022-10-01T21:34:19.977Z,8.93
2022-10-01T21:37:13.380Z,8.63
2022-10-01T21:39:49.428Z,9.80
2022-10-01T21:42:36.547Z,7.15
2022-10-01T21:45:13.237Z,7.03
2022-10-01T21:47:57.394Z,10.48
2022-10-01T21:50:27.774Z,10.23
2022-10-01T21:53:07.431Z,7.70
2022-10-01T21:55:55.909Z,7.53
2022-10-01T21:58:48.885Z,10.35
2022-10-01T22:01:23.632Z,8.90
2022-10-01T22:04:01.438Z,10.77
2022-10-01T22:06:36.406Z,12.40
2022-10-01T22:09:15.533Z,14.23
2022-10-01T22:11:48.183Z,8.00
2022-10-01T22:14:23.558Z,8.38
2022-10-01T22:16:53.254Z,8.20
2022-10-01T22:19:23.251Z,11.68
2022-10-01T22:22:00.538Z,12.82
2022-10-01T22:24:31.108Z,10.70
2022-10-01T22:27:13.565Z,9.48
2022-10-01T22:29:54.504Z,10.00
2022-10-01T22:32:38.484Z,9.45
2022-10-01T22:35:09.385Z,8.02
2022-10-01T22:38:00.558Z,10.68
2022-10-01T22:40:33.521Z,10.10
2022-10-01T22:43:10.635Z,12.02
2022-10-01T22:45:58.043Z,9.70
2022-10-01T22:48:46.583Z,10.23
2022-10-01T22:51:32.047Z,9.07
2022-10-01T22:54:28.504Z,11.77
2022-10-01T22:57:07.871Z,10.68
2022-10-01T23:00:00.582Z,10.35
2022-10-01T23:02:36.443Z,8.50
2022-10-01T23:05:25.533Z,11.45
2022-10-01T23:08:02.423Z,13.45
2022-10-01T23:10:51.536Z,10.18
2022-10-01T23:13:36.054Z,9.77
2022-10-01T23:16:15.665Z,9.65
2022-10-01T23:18:46.058Z,10.20
2022-10-01T23:21:25.486Z,11.23
2022-10-01T23:24:18.876Z,9.05
2022-10-01T23:27:12.505Z,10.98
2022-10-01T23:29:55.487Z,8.80
2022-10-01T23:32:35.550Z,15.55
2022-10-01T23:35:02.693Z,9.38
2022-10-01T23:37:54.672Z,12.82
2022-10-01T23:40:23.174Z,9.20
2022-10-01T23:43:02.565Z,8.57
2022-10-01T23:45:29.677Z,11.98
2022-10-01T23:48:06.536Z,11.02
2022-10-01T23:50:57.048Z,12.68
2022-10-01T23:53:38.573Z,11.15
2022-10-01T23:56:27.012Z,12.45
2022-10-01T23:59:07.533Z,9.77
